Time;durP1;ratioP1;P1;durP2;ratioP2;P2;SDS_P1;SDS_P2;PMS_P1;PMS_P2;Temp;Humidity;BMP_temperature;BMP_pressure;BME280_temperature;BME280_humidity;BME280_pressure;Samples;Min_cycle;Max_cycle;Signal;HPM_P1;HPM_P2
2023/10/15 06:59:00;;;;;;;22.92;3.25;;;;;;;8.65;90.38;96861.00;2090222;28;20554;-62
2023/10/15 07:19:01;;;;;;;6.00;1.67;;;;;;;8.48;89.56;96898.00;2086551;28;20548;-60
2023/10/15 07:20:03;;;;;;;6.25;1.83;;;;;;;8.86;88.24;96895.03;2073773;28;20623;-60
2023/10/15 07:21:05;;;;;;;7.32;2.22;;;;;;;8.96;87.85;96896.41;2064951;28;20555;-60
2023/10/15 07:22:06;;;;;;;8.13;1.80;;;;;;;8.86;86.94;96892.44;2065741;28;20201;-60
2023/10/15 07:23:08;;;;;;;13.32;2.00;;;;;;;9.02;86.89;96903.19;2065872;28;20197;-60
2023/10/15 07:24:11;;;;;;;7.28;2.00;;;;;;;9.48;85.53;96899.81;2064949;28;20550;-60
2023/10/15 07:25:13;;;;;;;11.48;2.50;;;;;;;10.60;82.65;96896.44;2065842;28;20226;-60
2023/10/15 07:26:16;;;;;;;8.88;2.08;;;;;;;11.14;79.74;96895.09;2064416;28;20225;-60
2023/10/15 07:27:19;;;;;;;4.20;1.55;;;;;;;11.92;78.00;96899.47;2063387;28;20236;-59
2023/10/15 07:28:22;;;;;;;11.73;3.15;;;;;;;12.41;76.17;96901.56;2064894;28;20761;-59
2023/10/15 07:29:24;;;;;;;4.97;1.67;;;;;;;12.71;73.13;96894.94;2067330;28;20204;-58
2023/10/15 07:30:27;;;;;;;4.95;2.53;;;;;;;12.77;72.11;96902.47;2066684;28;20310;-59
2023/10/15 07:31:28;;;;;;;16.25;2.70;;;;;;;12.47;72.00;96896.94;2066556;28;20274;-59
2023/10/15 07:35:59;;;;;;;8.98;1.85;;;;;;;10.84;77.67;96908.53;2101110;27;20563;-59
2023/10/15 07:42:25;;;;;;;8.93;1.88;;;;;;;9.83;80.35;96901.16;2083489;28;20552;-59
2023/10/15 07:44:30;;;;;;;5.70;1.80;;;;;;;10.68;77.22;96898.72;2099292;27;20550;-59
2023/10/15 07:45:32;;;;;;;4.85;2.08;;;;;;;11.62;75.07;96900.84;2091142;28;20225;-62
2023/10/15 07:46:34;;;;;;;8.80;1.80;;;;;;;12.21;72.39;96899.91;2090399;28;20223;-62
2023/10/15 07:47:38;;;;;;;8.77;2.30;;;;;;;12.44;71.91;96899.72;2089820;28;20200;-62
2023/10/15 07:48:40;;;;;;;5.90;1.83;;;;;;;12.83;71.47;96915.28;2089886;28;20188;-62
2023/10/15 07:49:42;;;;;;;11.52;1.60;;;;;;;13.16;69.11;96898.78;2088048;28;20416;-62
2023/10/15 07:50:45;;;;;;;9.37;2.00;;;;;;;13.60;67.99;96896.56;2082501;28;20196;-62
2023/10/15 07:51:47;;;;;;;7.57;1.73;;;;;;;13.39;68.11;96899.41;2084154;28;20425;-62
2023/10/15 07:52:50;;;;;;;8.15;1.90;;;;;;;13.88;67.69;96895.97;2082516;28;20691;-70
2023/10/15 07:53:52;;;;;;;9.93;2.17;;;;;;;14.02;67.41;96898.69;2086148;28;20188;-70
2023/10/15 07:54:54;;;;;;;11.25;1.70;;;;;;;14.52;65.45;96903.84;2085318;28;20664;-70
2023/10/15 07:55:55;;;;;;;8.27;1.90;;;;;;;14.68;64.79;96902.06;2082230;28;20213;-70
2023/10/15 07:56:58;;;;;;;7.13;1.80;;;;;;;14.70;65.86;96904.59;2082956;28;20430;-70
2023/10/15 07:58:00;;;;;;;11.77;1.95;;;;;;;14.59;65.66;96909.56;2083470;28;20657;-62
2023/10/15 07:59:04;;;;;;;7.80;2.10;;;;;;;15.05;62.98;96901.72;2081444;28;20243;-62
2023/10/15 08:00:09;;;;;;;12.88;2.15;;;;;;;13.73;66.04;96902.03;2082355;28;20715;-62
2023/10/15 08:01:11;;;;;;;8.20;2.00;;;;;;;13.04;67.50;96904.66;2082169;28;20223;-62
2023/10/15 08:02:13;;;;;;;5.30;1.65;;;;;;;13.69;66.06;96907.44;2082648;28;20189;-62
2023/10/15 08:03:16;;;;;;;8.88;2.25;;;;;;;13.27;66.89;96911.34;2083064;28;20204;-62
2023/10/15 08:04:18;;;;;;;6.90;1.95;;;;;;;12.55;67.83;96913.16;2083606;28;20319;-62
2023/10/15 08:05:23;;;;;;;6.43;2.00;;;;;;;11.79;70.08;96902.72;2083460;28;20582;-62
2023/10/15 08:06:26;;;;;;;11.20;2.00;;;;;;;12.48;68.97;96912.63;2081291;28;20281;-62
2023/10/15 08:07:28;;;;;;;8.48;1.85;;;;;;;13.35;66.54;96918.81;2077706;28;20197;-62
2023/10/15 08:08:29;;;;;;;7.53;1.55;;;;;;;14.34;64.34;96913.59;2085919;28;20620;-62
2023/10/15 08:09:31;;;;;;;9.77;2.05;;;;;;;14.97;63.11;96912.69;2081532;28;20242;-62
2023/10/15 08:10:34;;;;;;;8.30;1.70;;;;;;;15.44;61.54;96918.72;2079100;28;20220;-62
2023/10/15 08:11:38;;;;;;;7.05;1.80;;;;;;;14.82;60.72;96918.84;2081415;28;20865;-62
2023/10/15 08:12:41;;;;;;;8.70;2.10;;;;;;;15.07;60.86;96917.41;2083725;28;20672;-62
2023/10/15 08:13:42;;;;;;;9.38;2.10;;;;;;;15.55;58.96;96917.22;2083216;28;20770;-71
2023/10/15 08:14:45;;;;;;;11.23;1.60;;;;;;;15.34;59.76;96907.88;2082438;28;20736;-70
2023/10/15 08:15:47;;;;;;;9.07;1.60;;;;;;;16.21;59.01;96917.59;2090569;28;20207;-71
2023/10/15 08:16:49;;;;;;;8.43;1.70;;;;;;;16.64;58.19;96915.66;2088380;28;20208;-72
2023/10/15 08:17:51;;;;;;;8.45;1.98;;;;;;;16.37;59.14;96909.56;2083080;28;20295;-70
2023/10/15 08:18:53;;;;;;;4.25;1.25;;;;;;;15.20;60.31;96921.00;2082585;28;20220;-71
2023/10/15 08:19:55;;;;;;;8.52;1.85;;;;;;;14.03;62.25;96923.16;2081394;28;20708;-71
2023/10/15 08:20:57;;;;;;;11.23;2.58;;;;;;;13.86;64.13;96922.31;2083022;28;20270;-71
2023/10/15 08:21:59;;;;;;;6.75;1.50;;;;;;;13.19;66.29;96926.59;2082121;28;20196;-71
2023/10/15 08:23:01;;;;;;;13.55;1.55;;;;;;;12.51;67.73;96928.16;2082857;28;20618;-71
2023/10/15 08:24:04;;;;;;;3.67;1.40;;;;;;;12.27;68.49;96919.72;2082897;28;20485;-70
2023/10/15 08:25:13;;;;;;;8.73;2.05;;;;;;;12.21;69.13;96925.22;2083032;28;20311;-76
2023/10/15 08:26:15;;;;;;;7.65;2.38;;;;;;;11.54;70.07;96927.34;2081536;28;20195;-74
2023/10/15 08:27:17;;;;;;;9.35;2.45;;;;;;;11.97;69.53;96933.28;2082098;28;20216;-74
2023/10/15 08:36:43;;;;;;;6.15;1.70;;;;;;;9.85;77.00;96925.44;2083247;28;20575;-72
2023/10/15 08:37:46;;;;;;;12.27;1.98;;;;;;;9.89;77.07;96930.47;2082149;28;20786;-71
2023/10/15 08:38:49;;;;;;;11.15;2.20;;;;;;;9.83;76.75;96927.22;2080910;28;20559;-71
2023/10/15 08:39:51;;;;;;;8.98;2.28;;;;;;;9.61;77.17;96921.06;2078796;28;20208;-71
2023/10/15 08:40:55;;;;;;;14.30;2.33;;;;;;;9.64;78.06;96922.72;2074522;28;20210;-71
2023/10/15 09:19:25;;;;;;;11.90;2.55;;;;;;;8.92;82.49;96946.91;2084725;28;20580;-60
2023/10/15 09:20:27;;;;;;;9.77;2.10;;;;;;;9.09;81.22;96943.72;2079905;28;20212;-60
2023/10/15 09:21:29;;;;;;;8.45;2.70;;;;;;;10.06;78.78;96940.28;2082391;28;20216;-60
2023/10/15 09:22:32;;;;;;;12.88;2.17;;;;;;;11.56;73.65;96941.22;2082913;28;20184;-60
2023/10/15 09:23:36;;;;;;;9.43;1.85;;;;;;;12.59;69.32;96946.13;2079427;28;20271;-60
2023/10/15 09:24:38;;;;;;;8.45;1.85;;;;;;;13.72;65.30;96935.28;2082064;28;20191;-60
2023/10/15 09:25:41;;;;;;;7.60;2.03;;;;;;;14.16;63.88;96942.56;2082030;28;20201;-61
2023/10/15 09:26:43;;;;;;;9.98;1.73;;;;;;;15.02;61.87;96943.97;2077110;28;20201;-60
2023/10/15 09:27:47;;;;;;;8.15;1.80;;;;;;;15.19;60.27;96943.81;2079523;28;20287;-60
2023/10/15 09:28:51;;;;;;;10.07;1.67;;;;;;;15.21;59.68;96946.38;2080194;28;20196;-63
2023/10/15 09:30:14;;;;;;;12.73;2.05;;;;;;;15.59;58.10;96948.53;2078133;28;20204;-63
2023/10/15 09:31:16;;;;;;;5.32;2.03;;;;;;;15.92;57.85;96944.81;2078886;28;20311;-63
2023/10/15 09:32:18;;;;;;;5.78;1.88;;;;;;;15.81;56.57;96945.47;2080096;28;20201;-63
2023/10/15 09:33:30;;;;;;;7.00;1.90;;;;;;;16.10;56.69;96936.69;2077110;28;20189;-63
2023/10/15 09:34:33;;;;;;;10.85;1.58;;;;;;;16.91;55.20;96948.28;2078169;28;20198;-62
2023/10/15 09:35:35;;;;;;;9.98;1.90;;;;;;;17.24;54.28;96944.38;2077479;28;20224;-63
2023/10/15 09:36:36;;;;;;;7.65;1.30;;;;;;;17.01;53.06;96943.25;2080971;28;20186;-63
2023/10/15 09:37:39;;;;;;;6.70;1.40;;;;;;;16.56;53.75;96944.34;2081504;28;20190;-63
2023/10/15 09:38:41;;;;;;;9.82;1.95;;;;;;;16.42;54.47;96942.56;2077238;28;20265;-63
2023/10/15 09:39:43;;;;;;;10.90;1.80;;;;;;;15.97;54.72;96931.34;2077056;28;20200;-63
2023/10/15 09:40:45;;;;;;;4.63;1.27;;;;;;;15.45;55.62;96944.09;2080348;28;20296;-63
2023/10/15 09:41:47;;;;;;;3.63;1.30;;;;;;;16.40;53.58;96940.97;2080966;28;20226;-63
2023/10/15 09:42:53;;;;;;;3.95;1.20;;;;;;;16.53;52.50;96941.03;2082013;28;20756;-63
2023/10/15 09:43:57;;;;;;;7.45;1.35;;;;;;;14.66;55.44;96939.88;2080665;28;20190;-63
2023/10/15 09:45:02;;;;;;;7.60;1.52;;;;;;;14.52;56.38;96944.13;2077675;28;20216;-63
2023/10/15 09:46:04;;;;;;;5.05;1.30;;;;;;;13.46;58.42;96945.38;2079741;28;20212;-62
2023/10/15 09:47:08;;;;;;;6.45;1.45;;;;;;;13.25;59.71;96951.69;2080365;28;20223;-62
2023/10/15 09:48:10;;;;;;;4.63;1.50;;;;;;;12.28;62.17;96950.22;2079176;28;20670;-63
2023/10/15 09:49:12;;;;;;;8.73;1.60;;;;;;;12.01;62.81;96954.94;2080469;28;20275;-64
2023/10/15 09:50:25;;;;;;;7.43;1.27;;;;;;;12.17;63.41;96962.97;2078506;28;20719;-63
2023/10/15 09:51:27;;;;;;;9.18;2.45;;;;;;;12.35;61.54;96962.09;2075836;28;20193;-63
2023/10/15 09:52:29;;;;;;;5.97;1.50;;;;;;;12.71;61.45;96952.59;2075587;28;20617;-63
2023/10/15 09:53:34;;;;;;;5.90;1.30;;;;;;;12.37;62.20;96955.00;2078088;28;20185;-63
2023/10/15 09:54:37;;;;;;;5.60;1.45;;;;;;;12.27;62.69;96952.91;2072158;28;20201;-63
2023/10/15 09:55:40;;;;;;;9.13;1.75;;;;;;;11.39;64.21;96957.66;2071221;28;20657;-63
2023/10/15 09:56:45;;;;;;;8.82;1.40;;;;;;;11.07;66.43;96957.22;2077863;28;20259;-63
2023/10/15 10:11:10;;;;;;;9.25;1.60;;;;;;;10.04;68.68;96941.22;2102298;27;20607;-61
2023/10/15 10:13:51;;;;;;;5.55;1.40;;;;;;;9.85;69.82;96939.31;2091475;28;20555;-61
2023/10/15 10:15:11;;;;;;;8.70;1.80;;;;;;;10.18;69.84;96944.16;2095423;28;20203;-63
2023/10/15 10:16:24;;;;;;;7.57;1.63;;;;;;;10.78;67.68;96941.84;2090014;28;20622;-63
2023/10/15 10:17:28;;;;;;;10.27;1.80;;;;;;;11.37;66.84;96946.41;2085720;28;20195;-63
2023/10/15 10:18:33;;;;;;;11.52;1.70;;;;;;;11.88;63.78;96942.41;2082534;28;20284;-63
2023/10/15 10:19:35;;;;;;;5.50;1.30;;;;;;;13.27;61.46;96950.69;2081533;28;20303;-64
2023/10/15 10:20:37;;;;;;;7.93;1.75;;;;;;;14.36;58.27;96945.91;2083485;28;20220;-63
2023/10/15 10:21:39;;;;;;;13.52;2.78;;;;;;;14.98;55.95;96945.94;2083769;28;20190;-63
2023/10/15 10:22:43;;;;;;;5.45;1.27;;;;;;;15.18;55.43;96951.81;2082025;28;20204;-63
2023/10/15 10:23:50;;;;;;;13.50;1.85;;;;;;;14.09;55.77;96937.72;2082979;28;20222;-63
2023/10/15 10:24:58;;;;;;;3.95;1.60;;;;;;;12.97;59.24;96950.44;2084340;28;20654;-63
2023/10/15 10:26:10;;;;;;;6.63;1.33;;;;;;;12.14;60.41;96943.00;2084461;28;20211;-63
2023/10/15 10:27:14;;;;;;;6.85;1.60;;;;;;;11.46;62.10;96945.97;2082984;28;20214;-63
2023/10/15 10:28:22;;;;;;;7.45;1.90;;;;;;;11.44;63.49;96947.84;2082877;28;20192;-63
2023/10/15 10:29:26;;;;;;;5.30;1.42;;;;;;;11.63;65.46;96947.00;2082589;28;20195;-63
2023/10/15 10:30:28;;;;;;;7.38;1.10;;;;;;;11.06;66.64;96940.69;2083400;28;20247;-63
2023/10/15 10:31:30;;;;;;;8.45;1.75;;;;;;;11.28;69.78;96945.03;2081448;28;20193;-63
2023/10/15 10:32:33;;;;;;;9.40;1.70;;;;;;;11.07;70.04;96947.63;2079309;28;20286;-63
2023/10/15 10:33:41;;;;;;;8.55;1.42;;;;;;;10.80;72.82;96954.84;2083146;28;20203;-63
2023/10/15 10:34:44;;;;;;;10.90;1.67;;;;;;;10.48;72.75;96945.69;2083698;28;20195;-63
2023/10/15 10:35:46;;;;;;;11.50;1.10;;;;;;;9.86;73.69;96955.81;2083390;28;20719;-62
2023/10/15 10:36:52;;;;;;;6.38;1.40;;;;;;;9.77;73.32;96957.84;2082685;28;20684;-63
2023/10/15 10:38:02;;;;;;;8.82;1.60;;;;;;;11.16;70.32;96954.25;2083316;28;20224;-63
2023/10/15 10:39:17;;;;;;;5.68;1.17;;;;;;;11.99;69.84;96948.94;2084916;28;20219;-63
2023/10/15 10:40:45;;;;;;;8.60;1.80;;;;;;;11.65;71.27;96950.41;2081844;28;20228;-69
2023/10/15 10:41:59;;;;;;;6.45;1.40;;;;;;;11.18;72.35;96955.00;2081966;28;20231;-69
2023/10/15 11:02:56;;;;;;;21.77;8.60;;;;;;;9.36;79.09;96941.06;2084558;28;20559;-61
2023/10/15 11:03:59;;;;;;;14.85;5.97;;;;;;;9.57;77.81;96942.06;2080246;28;20195;-61
2023/10/15 11:05:01;;;;;;;8.10;2.10;;;;;;;9.42;77.45;96936.53;2069494;28;20229;-63
2023/10/15 11:06:07;;;;;;;8.38;1.65;;;;;;;9.54;77.97;96939.59;2063877;28;20220;-69
2023/10/15 11:07:10;;;;;;;4.30;1.55;;;;;;;10.03;76.62;96940.41;2065001;28;20242;-69
2023/10/15 11:09:19;;;;;;;9.90;1.65;;;;;;;9.45;77.06;96930.34;2085153;28;20548;-69
2023/10/15 11:10:21;;;;;;;13.05;1.55;;;;;;;9.41;77.05;96940.03;2070779;28;20241;-71
2023/10/15 11:11:24;;;;;;;6.65;1.73;;;;;;;9.37;77.29;96942.78;2071475;28;20619;-71
2023/10/15 11:12:27;;;;;;;10.52;1.70;;;;;;;10.57;74.41;96940.09;2071375;28;20203;-71
2023/10/15 11:13:29;;;;;;;8.55;1.90;;;;;;;12.35;71.50;96946.38;2070773;28;20849;-71
2023/10/15 11:14:31;;;;;;;8.48;1.70;;;;;;;13.15;66.27;96932.94;2072117;28;20473;-71
2023/10/15 11:15:32;;;;;;;11.35;1.77;;;;;;;13.75;65.46;96934.28;2071534;28;20274;-71
2023/10/15 11:16:36;;;;;;;8.50;1.50;;;;;;;14.40;63.94;96928.16;2071079;28;20675;-71
2023/10/15 11:17:53;;;;;;;3.75;1.27;;;;;;;15.31;64.18;96928.25;2074126;28;20194;-71
2023/10/15 11:18:56;;;;;;;11.45;1.77;;;;;;;15.41;60.70;96924.13;2070824;28;20558;-71
2023/10/15 11:19:58;;;;;;;10.18;1.98;;;;;;;15.02;60.11;96925.56;2072298;28;20268;-71
2023/10/15 11:21:00;;;;;;;5.03;1.45;;;;;;;15.63;57.99;96923.72;2071902;28;20198;-71
2023/10/15 11:22:03;;;;;;;7.07;1.85;;;;;;;15.37;56.96;96932.31;2068227;28;20195;-71
2023/10/15 11:23:08;;;;;;;6.13;1.38;;;;;;;15.78;57.02;96924.56;2068189;28;20253;-71
2023/10/15 11:24:10;;;;;;;4.53;1.30;;;;;;;15.42;57.32;96930.25;2072123;28;21103;-71
2023/10/15 11:25:14;;;;;;;3.33;1.27;;;;;;;14.97;56.46;96932.84;2070004;28;20308;-71
2023/10/15 11:26:16;;;;;;;5.60;1.48;;;;;;;15.17;57.12;96929.94;2068809;28;20223;-71
2023/10/15 11:27:19;;;;;;;7.30;1.60;;;;;;;15.68;58.10;96926.91;2073026;28;20190;-71
2023/10/15 11:28:21;;;;;;;4.60;1.90;;;;;;;16.06;55.73;96930.78;2074497;28;20217;-71
2023/10/15 11:29:24;;;;;;;4.95;1.20;;;;;;;15.24;55.16;96922.53;2075225;28;20816;-71
2023/10/15 11:30:25;;;;;;;6.25;1.40;;;;;;;15.37;56.84;96925.25;2072200;28;20221;-71
2023/10/15 11:31:27;;;;;;;15.68;2.00;;;;;;;15.65;55.80;96926.25;2069021;28;20205;-71
2023/10/15 11:32:29;;;;;;;4.85;1.30;;;;;;;15.60;55.26;96925.66;2075489;28;20197;-71
2023/10/15 11:33:31;;;;;;;6.35;1.50;;;;;;;15.77;53.44;96914.09;2074323;28;20288;-71
2023/10/15 11:34:35;;;;;;;7.80;1.80;;;;;;;14.73;55.09;96922.84;2072690;28;20256;-71
2023/10/15 11:35:38;;;;;;;6.05;1.40;;;;;;;13.49;57.99;96929.47;2072249;28;20684;-71
2023/10/15 11:36:43;;;;;;;5.95;1.55;;;;;;;12.85;60.29;96936.16;2072677;28;20285;-71
2023/10/15 11:37:50;;;;;;;12.10;1.83;;;;;;;12.68;61.42;96932.59;2074899;28;20540;-71
2023/10/15 11:38:53;;;;;;;5.28;1.83;;;;;;;11.96;60.60;96922.91;2071839;28;20196;-71
2023/10/15 11:39:55;;;;;;;7.13;1.25;;;;;;;12.17;63.29;96929.75;2073291;28;20309;-71
2023/10/15 11:40:57;;;;;;;7.53;1.38;;;;;;;11.66;61.45;96932.03;2072470;28;20231;-71
2023/10/15 11:41:58;;;;;;;4.85;1.00;;;;;;;11.39;61.39;96928.88;2071230;28;20267;-71
2023/10/15 11:47:58;;;;;;;4.68;0.90;;;;;;;10.60;62.18;96929.50;2084722;28;20559;-69
2023/10/15 11:49:01;;;;;;;6.97;1.17;;;;;;;10.57;61.79;96933.09;2085815;28;20216;-69
2023/10/15 11:50:06;;;;;;;6.60;1.33;;;;;;;11.58;60.87;96939.38;2085109;28;20240;-69
2023/10/15 11:51:08;;;;;;;3.67;1.10;;;;;;;11.65;60.56;96946.03;2081796;28;20195;-69
2023/10/15 11:54:14;;;;;;;6.93;1.10;;;;;;;10.45;61.75;96931.00;2082953;28;20563;-68
2023/10/15 11:55:22;;;;;;;5.20;1.00;;;;;;;10.19;62.45;96925.00;2075942;28;20588;-68
2023/10/15 11:56:26;;;;;;;6.28;1.20;;;;;;;10.45;62.30;96931.84;2073283;28;20226;-69
2023/10/15 11:57:27;;;;;;;9.77;1.38;;;;;;;11.15;61.05;96925.53;2072890;28;20197;-69
2023/10/15 11:58:32;;;;;;;12.23;1.38;;;;;;;12.29;59.10;96928.34;2072889;28;20588;-69
2023/10/15 11:59:34;;;;;;;6.40;1.98;;;;;;;13.62;57.22;96928.84;2074063;28;20281;-68
2023/10/15 12:00:39;;;;;;;4.22;1.33;;;;;;;13.38;54.80;96927.41;2074197;28;20767;-69
2023/10/15 12:01:41;;;;;;;6.97;1.38;;;;;;;13.41;55.54;96925.53;2073625;28;20556;-68
2023/10/15 12:02:42;;;;;;;5.20;1.35;;;;;;;13.96;55.45;96925.25;2072807;28;20565;-71
2023/10/15 12:03:44;;;;;;;6.28;1.20;;;;;;;14.74;54.08;96926.28;2072632;28;20189;-71
2023/10/15 12:04:51;;;;;;;5.00;1.20;;;;;;;14.20;52.79;96923.06;2072767;28;20319;-71
2023/10/15 12:05:53;;;;;;;4.88;1.20;;;;;;;14.57;53.24;96925.44;2073134;28;20201;-71
2023/10/15 12:06:54;;;;;;;6.97;1.08;;;;;;;14.18;52.02;96924.97;2065783;28;20273;-71
2023/10/15 12:07:56;;;;;;;5.75;1.38;;;;;;;13.82;51.42;96917.28;2076085;28;20280;-71
2023/10/15 12:08:58;;;;;;;6.15;1.73;;;;;;;13.49;53.38;96921.59;2075237;28;20873;-71
2023/10/15 12:10:00;;;;;;;4.82;1.35;;;;;;;13.05;54.67;96922.06;2073816;28;20244;-71
2023/10/15 12:11:01;;;;;;;6.18;1.27;;;;;;;12.62;56.11;96924.19;2073163;28;20202;-71
2023/10/15 12:12:03;;;;;;;5.78;1.40;;;;;;;12.04;56.61;96923.41;2074916;28;20233;-71
2023/10/15 12:15:00;;;;;;;5.85;1.70;;;;;;;11.22;58.63;96933.06;2094680;27;20560;-69
2023/10/15 12:16:02;;;;;;;4.00;1.85;;;;;;;11.24;60.32;96933.84;2088125;28;20195;-69
2023/10/15 12:18:09;;;;;;;13.75;2.20;;;;;;;11.04;63.87;96942.50;2084224;28;20616;-69
2023/10/15 12:20:28;;;;;;;2.40;0.90;;;;;;;10.11;67.28;96946.16;2100771;27;20570;-71
2023/10/15 12:21:30;;;;;;;7.53;1.27;;;;;;;9.99;68.04;96951.84;2115953;28;20236;-72
2023/10/15 12:23:37;;;;;;;9.27;1.70;;;;;;;9.96;74.58;96958.03;2089957;28;21012;-71
2023/10/15 12:35:20;;;;;;;6.93;1.50;;;;;;;9.58;75.10;96942.00;2081521;28;20571;-70
2023/10/15 12:36:22;;;;;;;8.48;1.55;;;;;;;10.86;72.56;96953.75;2079008;28;20186;-70
2023/10/15 12:37:24;;;;;;;7.45;1.42;;;;;;;11.80;70.77;96943.66;2078443;28;20189;-70
2023/10/15 12:38:28;;;;;;;5.35;1.33;;;;;;;12.30;68.50;96944.91;2078483;28;20866;-71
2023/10/15 12:39:29;;;;;;;7.15;1.50;;;;;;;12.74;68.22;96937.53;2077206;28;20197;-71
2023/10/15 12:40:32;;;;;;;4.15;1.27;;;;;;;13.38;66.82;96937.91;2078719;28;20228;-71
2023/10/15 12:41:38;;;;;;;4.80;1.30;;;;;;;13.52;65.70;96941.56;2077982;28;20200;-71
2023/10/15 12:42:40;;;;;;;3.80;1.27;;;;;;;14.58;63.35;96932.41;2078918;28;20197;-71
2023/10/15 12:43:42;;;;;;;4.13;1.33;;;;;;;14.82;61.67;96938.06;2078162;28;20641;-71
2023/10/15 12:44:46;;;;;;;4.03;1.20;;;;;;;15.09;60.66;96942.66;2077570;28;20182;-71
2023/10/15 12:45:52;;;;;;;7.50;1.50;;;;;;;14.65;58.38;96935.56;2078309;28;20204;-71
2023/10/15 12:46:53;;;;;;;4.55;1.27;;;;;;;14.69;57.92;96934.47;2078905;28;20702;-71
2023/10/15 12:47:58;;;;;;;5.72;1.10;;;;;;;14.60;57.24;96934.94;2077491;28;20300;-72
2023/10/15 12:49:02;;;;;;;4.43;1.20;;;;;;;13.79;56.94;96938.44;2078406;28;20228;-72
2023/10/15 12:50:04;;;;;;;2.90;0.93;;;;;;;13.76;56.77;96939.44;2085227;28;20649;-72
2023/10/15 12:51:05;;;;;;;4.05;1.05;;;;;;;13.90;55.58;96943.13;2085358;28;20188;-72
2023/10/15 12:52:08;;;;;;;4.57;1.13;;;;;;;14.15;56.24;96930.38;2078408;28;20193;-72
2023/10/15 12:53:10;;;;;;;5.07;0.90;;;;;;;14.01;54.79;96944.22;2076737;28;20283;-72
2023/10/15 12:54:13;;;;;;;4.20;1.13;;;;;;;13.74;54.32;96940.44;2078984;28;20554;-72
2023/10/15 12:55:17;;;;;;;5.93;1.50;;;;;;;14.45;54.71;96942.75;2077364;28;20225;-72
2023/10/15 12:56:18;;;;;;;5.38;1.77;;;;;;;14.88;54.16;96941.28;2077907;28;20713;-72
2023/10/15 12:57:22;;;;;;;5.75;1.20;;;;;;;15.25;53.76;96936.50;2078120;28;20186;-72
2023/10/15 12:58:23;;;;;;;5.68;1.00;;;;;;;15.02;52.13;96931.66;2078940;28;20204;-72
2023/10/15 12:59:25;;;;;;;6.50;1.10;;;;;;;14.89;53.35;96935.94;2078193;28;20660;-72
2023/10/15 13:00:27;;;;;;;5.68;0.90;;;;;;;15.30;54.49;96937.09;2077672;28;20236;-72
2023/10/15 13:01:29;;;;;;;4.53;1.23;;;;;;;14.95;53.47;96932.94;2077499;28;20205;-73
2023/10/15 13:02:32;;;;;;;5.00;1.10;;;;;;;14.30;51.63;96939.19;2078053;28;20189;-72
2023/10/15 13:03:33;;;;;;;5.03;1.17;;;;;;;14.13;52.59;96941.88;2078539;28;20205;-72
2023/10/15 13:04:35;;;;;;;3.17;1.00;;;;;;;13.53;52.80;96936.28;2078147;28;20200;-72
2023/10/15 13:05:36;;;;;;;6.20;1.08;;;;;;;12.88;55.33;96939.47;2077996;28;20675;-72
2023/10/15 13:06:38;;;;;;;5.03;1.20;;;;;;;12.80;57.01;96933.78;2078684;28;20287;-72
2023/10/15 13:07:40;;;;;;;5.25;1.23;;;;;;;12.42;56.77;96952.19;2079260;28;20224;-72
2023/10/15 13:08:43;;;;;;;6.38;1.50;;;;;;;12.39;57.76;96947.09;2077307;28;20197;-72
2023/10/15 13:09:44;;;;;;;3.17;1.10;;;;;;;12.04;58.61;96947.81;2078024;28;20728;-72
2023/10/15 13:10:46;;;;;;;4.75;1.20;;;;;;;12.77;58.02;96948.78;2078270;28;20885;-72
2023/10/15 13:11:47;;;;;;;5.53;1.30;;;;;;;13.27;56.93;96952.44;2077881;28;20658;-72
2023/10/15 13:12:50;;;;;;;7.45;1.10;;;;;;;13.86;55.48;96956.44;2078091;28;20200;-64
2023/10/15 13:13:51;;;;;;;6.35;1.67;;;;;;;14.63;55.89;96947.91;2078817;28;20324;-64
2023/10/15 13:14:53;;;;;;;4.10;1.08;;;;;;;14.86;54.01;96949.25;2078679;28;20264;-64
2023/10/15 13:15:54;;;;;;;2.58;1.10;;;;;;;15.11;53.07;96948.69;2079118;28;20216;-65
2023/10/15 13:16:56;;;;;;;2.85;1.17;;;;;;;15.28;52.75;96950.34;2078088;28;20272;-64
2023/10/15 13:17:59;;;;;;;5.10;1.40;;;;;;;15.38;52.40;96947.19;2077661;28;20193;-65
2023/10/15 13:19:03;;;;;;;4.50;1.30;;;;;;;14.68;53.02;96951.16;2077659;28;20197;-64
2023/10/15 13:20:06;;;;;;;4.07;1.40;;;;;;;14.83;53.05;96949.41;2076947;28;20695;-65
2023/10/15 13:21:08;;;;;;;7.65;1.35;;;;;;;15.18;52.02;96950.03;2077775;28;20213;-65
2023/10/15 13:22:10;;;;;;;4.63;1.33;;;;;;;15.00;52.98;96953.72;2077991;28;20276;-65
2023/10/15 13:23:12;;;;;;;4.68;1.30;;;;;;;15.24;51.06;96943.56;2077824;28;20221;-65
2023/10/15 13:24:14;;;;;;;3.58;0.90;;;;;;;14.99;51.58;96944.97;2078083;28;20193;-65
2023/10/15 13:25:16;;;;;;;5.55;1.45;;;;;;;15.59;52.15;96948.53;2075936;28;20220;-65
2023/10/15 13:26:17;;;;;;;3.40;1.20;;;;;;;15.63;51.41;96943.91;2077897;28;20607;-65
2023/10/15 13:27:19;;;;;;;4.65;1.05;;;;;;;15.80;52.00;96951.63;2079810;28;20209;-65
2023/10/15 13:28:21;;;;;;;3.80;1.10;;;;;;;15.65;50.30;96952.56;2079239;28;20189;-65
2023/10/15 13:29:23;;;;;;;5.28;1.20;;;;;;;15.66;50.27;96957.72;2077957;28;20808;-65
2023/10/15 13:30:25;;;;;;;3.78;1.00;;;;;;;15.68;49.98;96960.28;2077344;28;20225;-65
2023/10/15 13:31:26;;;;;;;4.22;0.98;;;;;;;15.65;49.47;96963.94;2077994;28;20204;-65
2023/10/15 13:32:28;;;;;;;2.38;1.05;;;;;;;15.77;49.03;96965.00;2077918;28;20193;-65
2023/10/15 13:33:30;;;;;;;3.15;0.88;;;;;;;15.98;48.11;96967.28;2077821;28;20232;-65
2023/10/15 13:34:32;;;;;;;4.10;0.70;;;;;;;15.38;48.26;96966.44;2076097;28;20196;-65
2023/10/15 13:35:35;;;;;;;3.55;1.23;;;;;;;15.62;48.15;96961.50;2076094;28;20221;-65
2023/10/15 13:36:36;;;;;;;2.03;0.80;;;;;;;15.52;48.79;96966.44;2085944;28;20667;-65
2023/10/15 13:37:39;;;;;;;3.90;1.20;;;;;;;15.87;47.05;96962.69;2085874;28;20690;-65
2023/10/15 13:38:41;;;;;;;3.63;0.77;;;;;;;15.95;47.15;96970.13;2081276;28;20201;-65
2023/10/15 13:39:42;;;;;;;2.97;0.90;;;;;;;15.83;46.36;96974.31;2080724;28;20331;-65
2023/10/15 13:40:44;;;;;;;3.85;1.38;;;;;;;15.76;45.97;96968.56;2077146;28;20594;-65
2023/10/15 13:41:46;;;;;;;2.90;1.20;;;;;;;15.83;46.28;96966.41;2078155;28;20770;-65
2023/10/15 13:42:48;;;;;;;4.65;1.00;;;;;;;15.77;45.96;96972.88;2077869;28;20237;-65
2023/10/15 13:43:50;;;;;;;7.75;1.02;;;;;;;15.83;46.61;96969.91;2077803;28;20596;-65
2023/10/15 13:44:52;;;;;;;1.85;0.70;;;;;;;15.93;45.58;96969.34;2077194;28;20265;-66
2023/10/15 13:45:53;;;;;;;3.00;0.88;;;;;;;15.67;45.37;96977.03;2077143;28;20185;-64
2023/10/15 13:46:55;;;;;;;7.10;1.02;;;;;;;15.26;46.52;96975.03;2070728;28;20197;-64
2023/10/15 13:47:56;;;;;;;4.15;1.00;;;;;;;14.99;46.59;96973.91;2072425;28;20269;-65
2023/10/15 13:48:58;;;;;;;2.58;1.00;;;;;;;15.23;47.16;96973.44;2072835;28;20201;-65
2023/10/15 13:50:00;;;;;;;8.77;1.38;;;;;;;15.30;47.71;96979.16;2071574;28;20224;-65
2023/10/15 13:51:01;;;;;;;4.35;1.15;;;;;;;15.36;47.48;96981.44;2072731;28;20650;-64
2023/10/15 13:52:04;;;;;;;3.90;1.35;;;;;;;14.72;46.96;96981.59;2073251;28;20256;-65
2023/10/15 13:53:05;;;;;;;4.57;1.20;;;;;;;14.66;48.54;96976.66;2073488;28;20190;-64
2023/10/15 13:54:07;;;;;;;3.50;1.02;;;;;;;14.34;48.29;96969.59;2071791;28;20190;-65
2023/10/15 13:55:09;;;;;;;2.28;1.00;;;;;;;14.22;48.91;96980.78;2071417;28;20222;-65
2023/10/15 13:56:10;;;;;;;4.47;1.15;;;;;;;14.74;48.59;96978.88;2072995;28;20198;-65
2023/10/15 13:57:12;;;;;;;5.80;1.05;;;;;;;14.99;48.37;96975.69;2071103;28;20198;-65
2023/10/15 13:58:13;;;;;;;4.07;1.45;;;;;;;14.71;47.62;96973.81;2072111;28;20189;-65
2023/10/15 13:59:15;;;;;;;3.58;0.90;;;;;;;14.79;47.87;96966.31;2072116;28;20189;-65
2023/10/15 14:00:19;;;;;;;5.00;1.30;;;;;;;15.66;47.40;96975.31;2071822;28;20218;-65
2023/10/15 14:01:21;;;;;;;4.00;1.20;;;;;;;15.81;47.00;96977.06;2072302;28;20202;-65
2023/10/15 14:02:23;;;;;;;6.75;1.00;;;;;;;15.89;46.66;96979.22;2073152;28;20916;-65
2023/10/15 14:03:24;;;;;;;7.38;1.20;;;;;;;16.21;47.00;96972.91;2071548;28;20217;-65
2023/10/15 14:04:26;;;;;;;3.47;0.75;;;;;;;15.93;46.78;96977.25;2071786;28;20236;-65
2023/10/15 14:05:32;;;;;;;3.50;0.90;;;;;;;14.79;47.86;96975.06;2070851;28;20224;-65
2023/10/15 14:06:35;;;;;;;2.78;0.90;;;;;;;14.11;48.84;96970.84;2072286;28;20685;-65
2023/10/15 14:07:36;;;;;;;3.55;1.00;;;;;;;13.88;49.05;96975.53;2071642;28;20202;-65
2023/10/15 14:08:38;;;;;;;3.05;0.90;;;;;;;13.58;50.44;96978.00;2071460;28;20217;-64
2023/10/15 14:09:39;;;;;;;2.95;1.00;;;;;;;14.30;50.38;96977.75;2071110;28;20432;-65